This is the latest recevied weather packets stored in our database for station/object W1ERB-13. If no packets are shown the sender has not sent any weather packets the latest 10 day(s).
| Time | Temp. | Humidity | Pressure | Rain* | Wind** | Luminosity | Snow |
|---|---|---|---|---|---|---|---|
| 1777476821 | 18.33° C | 49% | 1014.4 hPa | 0 mm | - | 659 W/m² | - |
| 1777476518 | 17.22° C | 51% | 1014.2 hPa | 0 mm | - | 693 W/m² | - |
| 1777476214 | 17.78° C | 49% | 1014.3 hPa | 0 mm | - | 688 W/m² | - |
| 1777475910 | 17.22° C | 53% | 1014.3 hPa | 0 mm | - | 636 W/m² | - |
| 1777475606 | 16.11° C | 53% | 1014.4 hPa | 0 mm | - | 766 W/m² | - |
| 1777475303 | 17.22° C | 51% | 1014.4 hPa | 0 mm | - | 754 W/m² | - |
| 1777474998 | 16.67° C | 52% | 1014.3 hPa | 0 mm | - | 776 W/m² | - |
| 1777474695 | 17.78° C | 51% | 1014.5 hPa | 0 mm | - | 789 W/m² | - |
| 1777474391 | 16.67° C | 54% | 1014.5 hPa | 0 mm | - | 767 W/m² | - |
| 1777474088 | 16.67° C | 54% | 1014.7 hPa | 0 mm | - | 787 W/m² | - |
| 1777473786 | 15.56° C | 55% | 1014.6 hPa | 0 mm | - | 777 W/m² | - |
| 1777473482 | 16.11° C | 57% | 1014.6 hPa | 0 mm | - | 796 W/m² | - |
| 1777473177 | 15.56° C | 54% | 1014.7 hPa | 0 mm | - | 784 W/m² | - |
| 1777472870 | 15.56° C | 53% | 1014.8 hPa | 0 mm | - | 776 W/m² | - |
| 1777472565 | 15° C | 55% | 1014.9 hPa | 0 mm | - | 754 W/m² | - |
| 1777472262 | 15° C | 55% | 1015.2 hPa | 0 mm | - | 697 W/m² | - |
| 1777471957 | 15° C | 56% | 1015.2 hPa | 0 mm | - | 720 W/m² | - |
| 1777471650 | 15° C | 56% | 1015.2 hPa | 0 mm | - | 691 W/m² | - |
| 1777471346 | 13.89° C | 58% | 1015.2 hPa | 0 mm | - | 456 W/m² | - |
| 1777471043 | 14.44° C | 57% | 1015.2 hPa | 0 mm | - | 554 W/m² | - |
| 1777470739 | 14.44° C | 57% | 1015.4 hPa | 0 mm | - | 626 W/m² | - |
| 1777470436 | 14.44° C | 55% | 1015.4 hPa | 0 mm | - | 563 W/m² | - |
| 1777470132 | 13.89° C | 59% | 1015.5 hPa | 0 mm | - | 538 W/m² | - |
| 1777469829 | 14.44° C | 56% | 1015.5 hPa | 0 mm | - | 527 W/m² | - |
| 1777469524 | 14.44° C | 55% | 1015.6 hPa | 0 mm | - | 652 W/m² | - |
* Rain latest hour (hover to see other rain measurements)
** Current wind speed in m/s (hover to see current wind gust speed)